createdAt,value
2019-03-26T00:01:57.786Z,3.90
2019-03-26T00:04:28.733Z,3.93
2019-03-26T00:06:59.611Z,4.30
2019-03-26T00:09:30.638Z,3.97
2019-03-26T00:12:01.609Z,3.77
2019-03-26T00:14:32.490Z,3.87
2019-03-26T00:17:03.428Z,3.73
2019-03-26T00:19:34.379Z,3.87
2019-03-26T00:22:05.411Z,3.87
2019-03-26T00:24:36.499Z,3.27
2019-03-26T00:27:08.016Z,3.08
2019-03-26T00:29:39.152Z,3.40
2019-03-26T00:32:10.178Z,4.20
2019-03-26T00:34:41.198Z,3.80
2019-03-26T00:37:12.118Z,3.70
2019-03-26T00:39:43.063Z,3.80
2019-03-26T00:42:14.171Z,3.80
2019-03-26T00:44:45.122Z,4.37
2019-03-26T00:47:16.148Z,3.65
2019-03-26T00:49:47.070Z,4.10
2019-03-26T00:52:17.922Z,3.83
2019-03-26T00:54:48.759Z,4.00
2019-03-26T00:57:19.745Z,4.57
2019-03-26T00:59:50.717Z,3.65
2019-03-26T01:02:21.943Z,3.33
2019-03-26T01:04:53.061Z,4.80
2019-03-26T01:07:24.022Z,4.20
2019-03-26T01:09:54.943Z,3.60
2019-03-26T01:12:25.952Z,4.20
2019-03-26T01:14:56.996Z,3.57
2019-03-26T01:17:28.015Z,3.40
2019-03-26T01:19:58.948Z,3.30
2019-03-26T01:22:29.903Z,3.57
2019-03-26T01:25:00.773Z,3.17
2019-03-26T01:27:31.719Z,3.75
2019-03-26T01:30:03.249Z,3.30
2019-03-26T01:32:34.414Z,4.30
2019-03-26T01:35:05.532Z,4.03
2019-03-26T01:37:36.465Z,3.40
2019-03-26T01:40:07.625Z,3.60
2019-03-26T01:42:38.549Z,3.72
2019-03-26T01:45:10.659Z,3.70
2019-03-26T01:47:41.731Z,3.80
2019-03-26T01:50:13.134Z,3.90
2019-03-26T01:52:44.143Z,4.67
2019-03-26T01:55:15.066Z,4.00
2019-03-26T01:57:46.034Z,3.67
2019-03-26T02:00:17.193Z,3.62
2019-03-26T02:02:48.166Z,4.33
2019-03-26T02:05:19.213Z,3.20
2019-03-26T02:07:50.121Z,4.30
2019-03-26T02:10:21.243Z,3.62
2019-03-26T02:12:52.223Z,3.80
2019-03-26T02:15:31.082Z,3.67
2019-03-26T02:18:02.665Z,3.43
2019-03-26T02:20:33.809Z,3.80
2019-03-26T02:23:04.833Z,4.20
2019-03-26T02:25:35.776Z,3.42
2019-03-26T02:28:07.751Z,4.03
2019-03-26T02:30:38.763Z,4.07
2019-03-26T02:33:09.803Z,4.53
2019-03-26T02:35:40.873Z,4.20
2019-03-26T02:38:11.819Z,4.55
2019-03-26T02:40:42.746Z,4.20
2019-03-26T02:43:13.600Z,3.63
2019-03-26T02:45:44.535Z,3.93
2019-03-26T02:48:15.571Z,3.35
2019-03-26T02:50:46.552Z,3.83
2019-03-26T02:53:17.389Z,4.20
2019-03-26T02:55:48.212Z,4.30
2019-03-26T02:58:19.137Z,3.67
2019-03-26T03:00:50.532Z,4.17
2019-03-26T03:03:21.445Z,3.03
2019-03-26T03:05:52.456Z,4.10
2019-03-26T03:08:23.548Z,3.47
2019-03-26T03:10:54.567Z,3.43
2019-03-26T03:13:25.566Z,3.00
2019-03-26T03:15:56.495Z,3.60
2019-03-26T03:18:27.362Z,3.50
2019-03-26T03:20:58.390Z,3.80
2019-03-26T03:23:29.756Z,4.50
2019-03-26T03:26:00.782Z,3.47
2019-03-26T03:28:31.727Z,4.37
2019-03-26T03:31:02.613Z,3.80
2019-03-26T03:33:33.445Z,4.00
2019-03-26T03:36:04.485Z,3.50
2019-03-26T03:38:35.435Z,4.42
2019-03-26T03:41:07.702Z,3.54
2019-03-26T03:43:38.715Z,3.57
2019-03-26T03:46:09.732Z,3.83
2019-03-26T03:48:41.046Z,3.90
2019-03-26T03:51:12.528Z,3.42
2019-03-26T03:53:43.549Z,2.83
2019-03-26T03:56:16.145Z,3.33
2019-03-26T03:58:48.850Z,2.80
2019-03-26T04:01:19.692Z,3.67
2019-03-26T04:03:50.688Z,3.07
2019-03-26T04:06:21.595Z,3.50
2019-03-26T04:08:52.612Z,4.40
2019-03-26T04:11:23.526Z,3.55
2019-03-26T04:13:56.695Z,3.53
2019-03-26T04:16:29.185Z,4.63
2019-03-26T04:19:00.115Z,3.37
2019-03-26T04:21:31.137Z,4.73
2019-03-26T04:24:01.997Z,4.03
2019-03-26T04:26:32.919Z,3.03
2019-03-26T04:29:03.815Z,3.90
2019-03-26T04:31:34.756Z,3.53
2019-03-26T04:34:05.810Z,4.03
2019-03-26T04:36:36.714Z,3.47
2019-03-26T04:39:08.876Z,4.30
2019-03-26T04:41:39.774Z,3.70
2019-03-26T04:44:10.777Z,3.77
2019-03-26T04:46:41.688Z,3.50
2019-03-26T04:49:12.594Z,3.90
2019-03-26T04:51:43.690Z,3.40
2019-03-26T04:54:14.595Z,3.77
2019-03-26T04:56:45.548Z,3.73
2019-03-26T04:59:16.675Z,3.70
2019-03-26T05:01:47.517Z,3.33
2019-03-26T05:04:18.365Z,4.43
2019-03-26T05:06:49.294Z,3.80
2019-03-26T05:09:20.149Z,3.10
2019-03-26T05:11:50.999Z,3.53
2019-03-26T05:14:21.827Z,3.08
2019-03-26T05:16:52.683Z,4.23
2019-03-26T05:19:23.655Z,3.72
2019-03-26T05:21:54.575Z,2.92
2019-03-26T05:24:25.514Z,3.30
2019-03-26T05:26:56.429Z,3.23
2019-03-26T05:29:27.371Z,2.60
2019-03-26T05:31:58.386Z,3.10
2019-03-26T05:34:29.299Z,2.87
2019-03-26T05:37:00.145Z,3.00
2019-03-26T05:39:30.992Z,3.30
2019-03-26T05:42:02.319Z,3.03
2019-03-26T05:44:33.170Z,2.97
2019-03-26T05:47:04.240Z,3.90
2019-03-26T05:49:35.185Z,3.90
2019-03-26T05:52:06.604Z,3.40
2019-03-26T05:54:37.449Z,3.43
2019-03-26T05:57:08.303Z,3.00
2019-03-26T05:59:43.807Z,3.30
2019-03-26T06:02:17.933Z,3.57
2019-03-26T06:04:48.268Z,2.97
2019-03-26T06:07:19.204Z,3.17
2019-03-26T06:09:50.147Z,3.70
2019-03-26T06:12:21.171Z,2.45
2019-03-26T06:14:52.092Z,2.40
2019-03-26T06:17:23.099Z,2.27
2019-03-26T06:19:54.154Z,2.73
2019-03-26T06:22:25.038Z,3.12
2019-03-26T06:24:55.923Z,2.73
2019-03-26T06:27:26.849Z,3.30
2019-03-26T06:29:57.827Z,2.57
2019-03-26T06:32:28.831Z,2.33
2019-03-26T06:34:59.777Z,2.63
2019-03-26T06:37:30.788Z,2.60
2019-03-26T06:40:01.693Z,2.87
2019-03-26T06:42:32.747Z,2.03
2019-03-26T06:45:03.861Z,2.20
2019-03-26T06:47:34.822Z,2.20
2019-03-26T06:50:06.537Z,2.73
2019-03-26T06:52:37.814Z,2.45
2019-03-26T06:55:10.772Z,3.27
2019-03-26T06:57:41.952Z,3.20
2019-03-26T07:00:15.303Z,3.42
2019-03-26T07:02:46.370Z,3.23
2019-03-26T07:05:17.692Z,2.93
2019-03-26T07:07:49.122Z,2.73
2019-03-26T07:10:26.844Z,2.87
2019-03-26T07:12:58.518Z,2.97
2019-03-26T07:15:29.834Z,3.87
2019-03-26T07:18:01.294Z,3.70
2019-03-26T07:20:32.566Z,3.47
2019-03-26T07:23:03.891Z,3.50
2019-03-26T07:25:35.216Z,3.87
2019-03-26T07:28:07.944Z,4.17
2019-03-26T07:30:44.401Z,3.33
2019-03-26T07:33:15.739Z,4.90
2019-03-26T07:35:47.074Z,3.77
2019-03-26T07:38:18.633Z,3.50
2019-03-26T07:40:50.174Z,4.00
2019-03-26T07:43:21.779Z,3.57
2019-03-26T07:45:54.909Z,4.00
2019-03-26T07:48:26.211Z,4.73
2019-03-26T07:50:57.443Z,3.47
2019-03-26T07:53:28.771Z,3.57
2019-03-26T07:56:03.428Z,4.23
2019-03-26T07:58:34.527Z,4.10
2019-03-26T08:01:05.876Z,3.43
2019-03-26T08:03:37.262Z,4.30
2019-03-26T08:06:08.516Z,3.83
2019-03-26T08:08:40.835Z,4.10
2019-03-26T08:11:12.339Z,3.70
2019-03-26T08:13:43.313Z,3.87
2019-03-26T08:16:14.239Z,3.33
2019-03-26T08:18:45.110Z,3.43
2019-03-26T08:21:16.064Z,4.07
2019-03-26T08:23:47.013Z,3.37
2019-03-26T08:26:17.980Z,3.10
2019-03-26T08:28:48.986Z,3.10
2019-03-26T08:31:19.855Z,3.05
2019-03-26T08:33:50.754Z,2.67
2019-03-26T08:36:21.741Z,2.57
2019-03-26T08:38:52.622Z,3.43
2019-03-26T08:41:23.546Z,3.20
2019-03-26T08:43:54.494Z,2.83
2019-03-26T08:46:25.537Z,3.53
2019-03-26T08:48:56.399Z,3.33
2019-03-26T08:51:27.559Z,2.77
2019-03-26T08:53:58.563Z,3.03
2019-03-26T08:56:29.582Z,3.00
2019-03-26T08:59:00.461Z,3.00
2019-03-26T09:01:31.493Z,3.40
2019-03-26T09:04:02.449Z,3.87
2019-03-26T09:06:33.471Z,3.40
2019-03-26T09:09:05.861Z,3.20
2019-03-26T09:11:36.981Z,3.53
2019-03-26T09:14:08.055Z,3.50
2019-03-26T09:16:39.089Z,3.87
2019-03-26T09:19:10.158Z,3.60
2019-03-26T09:21:41.170Z,2.77
2019-03-26T09:24:12.012Z,3.35
2019-03-26T09:26:42.924Z,3.13
2019-03-26T09:29:13.872Z,2.83
2019-03-26T09:31:44.750Z,3.07
2019-03-26T09:34:15.600Z,3.43
2019-03-26T09:36:46.506Z,2.87
2019-03-26T09:39:17.372Z,3.43
2019-03-26T09:41:48.332Z,3.70
2019-03-26T09:44:19.271Z,3.90
2019-03-26T09:46:50.323Z,3.60
2019-03-26T09:49:21.313Z,3.50
2019-03-26T09:51:52.179Z,3.67
2019-03-26T09:54:23.018Z,3.37
2019-03-26T09:56:53.959Z,3.47
2019-03-26T09:59:24.811Z,3.35
2019-03-26T10:01:55.869Z,3.87
2019-03-26T10:04:26.792Z,2.83
2019-03-26T10:06:57.718Z,3.00
2019-03-26T10:09:28.707Z,3.70
2019-03-26T10:11:59.727Z,4.30
2019-03-26T10:14:30.544Z,3.43
2019-03-26T10:17:01.534Z,3.50
2019-03-26T10:19:33.674Z,3.20
2019-03-26T10:22:04.616Z,2.97
2019-03-26T10:24:35.546Z,3.13
2019-03-26T10:27:21.248Z,3.20
2019-03-26T10:29:52.268Z,3.27
2019-03-26T10:32:23.539Z,3.17
2019-03-26T10:34:54.418Z,3.83
2019-03-26T10:37:25.543Z,3.20
2019-03-26T10:39:56.556Z,3.50
2019-03-26T10:42:27.421Z,3.60
2019-03-26T10:44:58.270Z,3.80
2019-03-26T10:47:29.392Z,3.83
2019-03-26T10:50:00.415Z,3.00
2019-03-26T10:52:34.421Z,3.23
2019-03-26T10:55:04.023Z,3.43
2019-03-26T10:57:35.156Z,3.17
2019-03-26T11:00:07.470Z,3.03
2019-03-26T11:02:38.494Z,3.70
2019-03-26T11:05:09.875Z,3.87
2019-03-26T11:07:42.623Z,3.20
2019-03-26T11:10:14.006Z,3.70
2019-03-26T11:12:44.952Z,4.45
2019-03-26T11:15:16.180Z,3.72
2019-03-26T11:17:47.267Z,4.13
2019-03-26T11:20:18.476Z,3.40
2019-03-26T11:22:49.572Z,3.63
2019-03-26T11:25:20.704Z,3.17
2019-03-26T11:27:51.699Z,3.07
2019-03-26T11:30:22.720Z,3.37
2019-03-26T11:32:53.668Z,3.13
2019-03-26T11:35:24.695Z,3.47
2019-03-26T11:37:55.641Z,3.80
2019-03-26T11:40:26.665Z,3.17
2019-03-26T11:42:57.866Z,3.10
2019-03-26T11:45:28.790Z,3.37
2019-03-26T11:47:59.670Z,3.53
2019-03-26T11:50:30.702Z,2.50
2019-03-26T11:53:01.626Z,2.53
2019-03-26T11:55:32.473Z,3.40
2019-03-26T11:58:03.351Z,2.60
2019-03-26T12:00:36.659Z,3.00
2019-03-26T12:03:07.875Z,2.90
2019-03-26T12:05:39.340Z,2.90
2019-03-26T12:08:10.288Z,2.67
2019-03-26T12:10:41.312Z,3.33
2019-03-26T12:13:12.163Z,2.83
2019-03-26T12:15:43.038Z,2.73
2019-03-26T12:18:14.150Z,2.90
2019-03-26T12:20:45.242Z,3.30
2019-03-26T12:23:16.179Z,3.60
2019-03-26T12:25:47.067Z,2.97
2019-03-26T12:28:18.007Z,3.30
2019-03-26T12:30:48.868Z,3.27
2019-03-26T12:33:19.816Z,4.10
2019-03-26T12:35:50.796Z,3.23
2019-03-26T12:38:22.879Z,3.22
2019-03-26T12:40:54.007Z,3.47
2019-03-26T12:43:25.022Z,3.35
2019-03-26T12:45:56.030Z,3.40
2019-03-26T12:48:26.909Z,3.27
2019-03-26T12:50:57.908Z,3.50
2019-03-26T12:53:28.913Z,3.10
2019-03-26T12:55:59.949Z,3.10
2019-03-26T12:58:32.704Z,2.97
2019-03-26T13:01:03.549Z,3.20
2019-03-26T13:03:34.412Z,3.30
2019-03-26T13:06:05.517Z,3.70
2019-03-26T13:08:36.436Z,3.33
2019-03-26T13:11:07.498Z,2.43
2019-03-26T13:13:38.349Z,2.80
2019-03-26T13:16:09.379Z,2.90
2019-03-26T13:18:40.242Z,2.93
2019-03-26T13:21:11.249Z,2.80
2019-03-26T13:23:42.198Z,3.73
2019-03-26T13:26:13.146Z,2.22
2019-03-26T13:28:44.078Z,2.43
2019-03-26T13:31:14.919Z,2.70
2019-03-26T13:33:45.933Z,2.80
2019-03-26T13:36:16.955Z,2.20
2019-03-26T13:38:47.987Z,2.63
2019-03-26T13:41:19.022Z,2.57
2019-03-26T13:43:49.970Z,2.20
2019-03-26T13:46:20.924Z,2.30
2019-03-26T13:48:51.790Z,2.23
2019-03-26T13:51:22.751Z,2.00
2019-03-26T13:53:53.677Z,2.13
2019-03-26T13:56:24.688Z,2.50
2019-03-26T13:58:57.281Z,3.37
2019-03-26T14:01:28.334Z,2.30
2019-03-26T14:03:59.440Z,2.70
2019-03-26T14:06:32.477Z,2.20
2019-03-26T14:09:04.726Z,2.50
2019-03-26T14:11:35.638Z,2.87
2019-03-26T14:14:07.825Z,3.02
2019-03-26T14:16:38.849Z,3.40
2019-03-26T14:19:09.876Z,3.20
2019-03-26T14:21:40.816Z,3.10
2019-03-26T14:24:13.369Z,2.70
2019-03-26T14:26:44.669Z,2.90
2019-03-26T14:29:15.663Z,3.02
2019-03-26T14:31:46.660Z,2.37
2019-03-26T14:34:17.521Z,3.47
2019-03-26T14:36:48.535Z,2.70
2019-03-26T14:39:19.551Z,3.07
2019-03-26T14:41:50.484Z,2.50
2019-03-26T14:44:21.472Z,2.53
2019-03-26T14:46:52.576Z,2.98
2019-03-26T14:49:23.439Z,2.72
2019-03-26T14:51:54.400Z,2.53
2019-03-26T14:54:25.406Z,3.10
2019-03-26T14:57:00.969Z,2.80
2019-03-26T14:59:32.204Z,2.63
2019-03-26T15:02:03.226Z,2.50
2019-03-26T15:04:34.166Z,2.40
2019-03-26T15:07:05.119Z,2.30
2019-03-26T15:09:36.039Z,3.13
2019-03-26T15:12:07.610Z,2.70
2019-03-26T15:14:38.615Z,2.80
2019-03-26T15:17:09.495Z,2.70
2019-03-26T15:19:40.411Z,2.77
2019-03-26T15:22:11.284Z,2.60
2019-03-26T15:24:42.338Z,2.90
2019-03-26T15:27:13.279Z,2.72
2019-03-26T15:29:44.388Z,2.90
2019-03-26T15:32:15.406Z,2.63
2019-03-26T15:34:46.264Z,2.73
2019-03-26T15:37:17.180Z,2.67
2019-03-26T15:39:48.104Z,3.10
2019-03-26T15:42:19.016Z,3.27
2019-03-26T15:44:50.032Z,3.77
2019-03-26T15:47:21.080Z,3.07
2019-03-26T15:49:51.950Z,2.97
2019-03-26T15:52:22.993Z,3.40
2019-03-26T15:54:53.930Z,2.67
2019-03-26T15:57:24.853Z,3.05
2019-03-26T15:59:56.008Z,3.27
2019-03-26T16:02:26.942Z,3.20
2019-03-26T16:04:58.002Z,2.87
2019-03-26T16:07:28.934Z,2.97
2019-03-26T16:10:00.348Z,2.80
2019-03-26T16:12:41.030Z,3.57
2019-03-26T16:15:04.000Z,2.70
2019-03-26T16:17:35.140Z,3.22
2019-03-26T16:20:09.098Z,2.53
2019-03-26T16:22:40.240Z,3.07
2019-03-26T16:25:11.977Z,3.27
2019-03-26T16:27:42.949Z,3.40
2019-03-26T16:30:15.183Z,3.27
2019-03-26T16:32:46.105Z,3.10
2019-03-26T16:35:17.221Z,2.80
2019-03-26T16:37:49.208Z,3.70
2019-03-26T16:40:20.178Z,2.60
2019-03-26T16:42:51.298Z,2.90
2019-03-26T16:45:22.359Z,3.22
2019-03-26T16:47:53.325Z,3.53
2019-03-26T16:50:25.055Z,2.70
2019-03-26T16:52:56.192Z,3.03
2019-03-26T16:55:27.120Z,3.40
2019-03-26T16:57:58.258Z,2.73
2019-03-26T17:00:34.352Z,3.30
2019-03-26T17:03:05.585Z,3.53
2019-03-26T17:05:36.466Z,3.53
2019-03-26T17:08:07.615Z,3.55
2019-03-26T17:10:38.733Z,3.83
2019-03-26T17:13:09.781Z,3.63
2019-03-26T17:15:46.845Z,3.83
2019-03-26T17:18:17.908Z,3.80
2019-03-26T17:20:48.950Z,3.70
2019-03-26T17:23:19.892Z,3.83
2019-03-26T17:25:50.988Z,4.00
2019-03-26T17:28:22.087Z,4.15
2019-03-26T17:30:53.078Z,3.97
2019-03-26T17:33:24.111Z,4.08
2019-03-26T17:35:55.249Z,4.10
2019-03-26T17:38:26.436Z,4.60
2019-03-26T17:40:57.463Z,4.33
2019-03-26T17:43:28.424Z,4.60
2019-03-26T17:46:09.937Z,4.40
2019-03-26T17:48:40.956Z,4.93
2019-03-26T17:51:11.875Z,4.90
2019-03-26T17:53:42.733Z,4.53
2019-03-26T17:56:13.741Z,5.00
2019-03-26T17:58:44.767Z,5.67
2019-03-26T18:01:15.876Z,4.83
2019-03-26T18:03:46.897Z,4.90
2019-03-26T18:06:17.905Z,5.37
2019-03-26T18:08:48.927Z,4.27
2019-03-26T18:11:19.934Z,4.90
2019-03-26T18:13:50.917Z,5.87
2019-03-26T18:16:21.919Z,4.63
2019-03-26T18:18:55.039Z,5.23
2019-03-26T18:21:25.645Z,5.10
2019-03-26T18:23:56.509Z,5.40
2019-03-26T18:26:27.518Z,5.15
2019-03-26T18:28:58.459Z,6.03
2019-03-26T18:31:29.374Z,5.50
2019-03-26T18:34:00.396Z,5.77
2019-03-26T18:36:31.351Z,5.23
2019-03-26T18:39:02.529Z,5.30
2019-03-26T18:41:45.356Z,5.97
2019-03-26T18:44:16.577Z,5.62
2019-03-26T18:46:47.792Z,5.50
2019-03-26T18:49:18.973Z,5.65
2019-03-26T18:51:50.422Z,6.10
2019-03-26T18:54:21.765Z,5.80
2019-03-26T18:56:53.023Z,6.63
2019-03-26T18:59:24.489Z,5.92
2019-03-26T19:01:56.151Z,7.33
2019-03-26T19:04:27.659Z,6.00
2019-03-26T19:06:58.885Z,6.20
2019-03-26T19:09:30.206Z,6.43
2019-03-26T19:12:01.876Z,5.70
2019-03-26T19:14:33.083Z,6.37
2019-03-26T19:17:04.434Z,6.00
2019-03-26T19:19:35.787Z,6.13
2019-03-26T19:22:08.255Z,6.26
2019-03-26T19:24:39.641Z,7.03
2019-03-26T19:27:10.916Z,7.53
2019-03-26T19:29:42.374Z,7.13
2019-03-26T19:32:13.649Z,6.62
2019-03-26T19:34:45.096Z,6.80
2019-03-26T19:37:16.445Z,7.63
2019-03-26T19:39:47.735Z,6.40
2019-03-26T19:42:19.161Z,7.22
2019-03-26T19:44:50.463Z,6.87
2019-03-26T19:47:21.759Z,7.17
2019-03-26T19:49:52.976Z,7.43
2019-03-26T19:52:24.311Z,7.97
2019-03-26T19:54:55.666Z,7.17
2019-03-26T19:59:59.672Z,8.07
2019-03-26T20:02:31.064Z,7.10
2019-03-26T20:05:02.510Z,7.73
2019-03-26T20:07:34.014Z,7.77
2019-03-26T20:10:06.440Z,7.43
2019-03-26T20:12:40.150Z,7.03
2019-03-26T20:15:13.761Z,7.97
2019-03-26T20:17:45.247Z,8.00
2019-03-26T20:20:17.026Z,7.45
2019-03-26T20:22:48.486Z,8.93
2019-03-26T20:25:20.522Z,8.43
2019-03-26T20:27:51.879Z,9.40
2019-03-26T20:30:23.539Z,8.00
2019-03-26T20:32:54.808Z,9.73
2019-03-26T20:35:26.322Z,8.80
2019-03-26T20:37:57.666Z,9.27
2019-03-26T20:40:28.928Z,9.17
2019-03-26T20:43:00.261Z,10.67
2019-03-26T20:45:32.581Z,8.90
2019-03-26T20:48:03.853Z,9.57
2019-03-26T20:50:35.235Z,8.60
2019-03-26T20:53:06.500Z,8.77
2019-03-26T20:55:38.170Z,8.60
2019-03-26T20:58:09.482Z,9.10
2019-03-26T21:00:42.339Z,9.23
2019-03-26T21:03:13.697Z,8.98
2019-03-26T21:05:45.167Z,9.53
2019-03-26T21:08:16.515Z,8.63
2019-03-26T21:10:48.069Z,9.13
2019-03-26T21:13:22.769Z,9.23
2019-03-26T21:15:57.562Z,8.40
2019-03-26T21:18:26.967Z,9.10
2019-03-26T21:20:58.386Z,9.10
2019-03-26T21:23:29.821Z,8.50
2019-03-26T21:26:01.150Z,8.93
2019-03-26T21:28:32.122Z,7.97
2019-03-26T21:31:03.164Z,9.27
2019-03-26T21:33:34.098Z,9.17
2019-03-26T21:36:05.654Z,9.63
2019-03-26T21:38:36.566Z,9.03
2019-03-26T21:41:07.793Z,8.98
2019-03-26T21:43:38.890Z,8.90
2019-03-26T21:46:09.914Z,9.37
2019-03-26T21:48:40.854Z,8.60
2019-03-26T21:51:11.971Z,9.00
2019-03-26T21:53:43.001Z,8.03
2019-03-26T21:56:14.020Z,9.57
2019-03-26T21:58:44.985Z,9.10
2019-03-26T22:01:16.000Z,7.90
2019-03-26T22:03:46.878Z,8.37
2019-03-26T22:06:17.810Z,9.13
2019-03-26T22:08:48.788Z,8.90
2019-03-26T22:11:19.728Z,9.48
2019-03-26T22:13:50.726Z,9.10
2019-03-26T22:16:21.757Z,9.33
2019-03-26T22:18:52.813Z,8.17
2019-03-26T22:21:23.837Z,8.67
2019-03-26T22:23:54.755Z,9.77
2019-03-26T22:26:25.690Z,9.87
2019-03-26T22:28:56.537Z,9.70
2019-03-26T22:31:27.639Z,9.70
2019-03-26T22:33:58.487Z,9.80
2019-03-26T22:36:29.630Z,9.33
2019-03-26T22:39:00.614Z,8.73
2019-03-26T22:41:31.477Z,11.33
2019-03-26T22:44:02.417Z,9.47
2019-03-26T22:46:33.352Z,10.67
2019-03-26T22:49:04.313Z,11.03
2019-03-26T22:51:35.233Z,10.37
2019-03-26T22:54:06.243Z,10.60
2019-03-26T22:56:37.109Z,10.50
2019-03-26T22:59:08.092Z,10.53
2019-03-26T23:01:39.111Z,11.10
2019-03-26T23:04:10.136Z,10.70
2019-03-26T23:06:41.582Z,11.00
2019-03-26T23:09:12.510Z,9.83
2019-03-26T23:11:43.526Z,10.13
2019-03-26T23:14:15.506Z,11.03
2019-03-26T23:16:46.516Z,10.47
2019-03-26T23:19:17.467Z,11.33
2019-03-26T23:21:48.332Z,12.13
2019-03-26T23:24:19.284Z,11.67
2019-03-26T23:26:50.328Z,10.57
2019-03-26T23:29:21.184Z,11.18
2019-03-26T23:31:52.065Z,10.43
2019-03-26T23:34:23.006Z,10.18
2019-03-26T23:36:53.933Z,9.90
2019-03-26T23:39:24.868Z,10.70
2019-03-26T23:41:55.721Z,10.40
2019-03-26T23:44:26.709Z,10.80
2019-03-26T23:46:57.572Z,10.57
2019-03-26T23:49:28.459Z,10.57
2019-03-26T23:51:59.398Z,10.43
2019-03-26T23:54:30.325Z,10.50
2019-03-26T23:57:01.321Z,10.10
2019-03-26T23:59:32.348Z,9.90
